CMA CGM Tosca — FMEL — position and weather

sailwx.info

Track history (hours):
 
Tides and Currents Weather Stations Pressure Air Temp Water Temp Dewpoint Dewpoint Depression Visibility Wind Speed Wind Dir Waves Ship Positions

CMA CGM Tosca

Last reported at 2014-Sep-02 00:24 UTC. Time now 2014-Sep-21 00:02 UTC.
Position S 25°13' W 044°47'.
Warning: this ship's position is 18 days out of date.

; draft 11.2 m.

Type: Cargo ship. MMSI: 228335900.

Date/timePositionNaut miles runAvg speedWind from/ knotsBaromVisibWave heightAir tempDewpointWater temp
2014-Sep-02 00:24S 25°13' W 044°47'1619.3
2014-Sep-01 23:33S 25°06' W 045°03'8318.6
2014-Sep-01 19:04S 24°21' W 046°20'1018.6
2014-Sep-01 18:33S 24°12' W 046°23'1212.6
2014-Sep-01 17:33S 23°60' W 046°20'4 4.1
2014-Sep-01 16:33S 23°56' W 046°19'0 0.2
2014-Sep-01 15:27S 23°56' W 046°19'0 0.0
2014-Sep-01 14:27S 23°56' W 046°19'0 0.0
2014-Sep-01 13:33S 23°56' W 046°19'0 0.0
2014-Sep-01 12:33S 23°56' W 046°19'0 0.0
2014-Sep-01 11:33S 23°56' W 046°19'0 0.0
2014-Sep-01 10:27S 23°56' W 046°19'0 0.0
2014-Sep-01 09:33S 23°56' W 046°19'0 0.0
2014-Sep-01 08:33S 23°56' W 046°19'0 0.0
2014-Sep-01 07:30S 23°56' W 046°19'0 0.0
2014-Sep-01 06:33S 23°56' W 046°19'0 0.0
2014-Sep-01 05:33S 23°56' W 046°19'0 0.0
2014-Sep-01 04:33S 23°56' W 046°19'0 0.0
2014-Sep-01 03:33S 23°56' W 046°19'0 0.0
2014-Sep-01 02:27S 23°56' W 046°19'0 0.0
2014-Sep-01 01:33S 23°56' W 046°19'0 0.0
2014-Sep-01 00:33S 23°56' W 046°19'0 0.0
2014-Aug-31 23:33S 23°56' W 046°19'0 0.0
2014-Aug-31 22:33S 23°56' W 046°19'0 0.0
2014-Aug-31 21:30S 23°56' W 046°19'0 0.0
2014-Aug-31 20:33S 23°56' W 046°19'0 0.0
2014-Aug-31 19:33S 23°56' W 046°19'0 0.0
2014-Aug-31 18:33S 23°56' W 046°19'0 0.0
2014-Aug-31 17:33S 23°56' W 046°19'0 0.0
2014-Aug-31 16:33S 23°56' W 046°19'0 0.0
2014-Aug-31 15:33S 23°56' W 046°19'0 0.0
2014-Aug-31 14:33S 23°56' W 046°19'0 0.0
2014-Aug-31 13:30S 23°56' W 046°19'0 0.0
2014-Aug-31 12:30S 23°56' W 046°19'0 0.0
2014-Aug-31 11:33S 23°56' W 046°19'0 0.0
2014-Aug-31 10:33S 23°56' W 046°19'0 0.0
2014-Aug-31 09:33S 23°56' W 046°19'3 3.5
2014-Aug-31 08:33S 23°59' W 046°17'7 7.1
2014-Aug-31 07:33S 24°04' W 046°22'5 4.7
2014-Aug-31 06:33S 24°09' W 046°23'  
Track history (hours):
 
Tides and Currents Weather Stations Pressure Air Temp Water Temp Dewpoint Dewpoint Depression Visibility Wind Speed Wind Dir Waves Ship Positions

CMA CGM Tosca

Last reported at 2014-Sep-02 00:24 UTC. Time now 2014-Sep-21 00:02 UTC.
Position S 25°13' W 044°47'.
Warning: this ship's position is 18 days out of date.

; draft 11.2 m.

Type: Cargo ship. MMSI: 228335900.

Date/timePositionNaut miles runAvg speedWind from/ knotsBaromVisibWave heightAir tempDewpointWater temp
2014-Sep-02 00:24S 25°13' W 044°47'1619.3
2014-Sep-01 23:33S 25°06' W 045°03'8318.6
2014-Sep-01 19:04S 24°21' W 046°20'1018.6
2014-Sep-01 18:33S 24°12' W 046°23'1212.6
2014-Sep-01 17:33S 23°60' W 046°20'4 4.1
2014-Sep-01 16:33S 23°56' W 046°19'0 0.2
2014-Sep-01 15:27S 23°56' W 046°19'0 0.0
2014-Sep-01 14:27S 23°56' W 046°19'0 0.0
2014-Sep-01 13:33S 23°56' W 046°19'0 0.0
2014-Sep-01 12:33S 23°56' W 046°19'0 0.0
2014-Sep-01 11:33S 23°56' W 046°19'0 0.0
2014-Sep-01 10:27S 23°56' W 046°19'0 0.0
2014-Sep-01 09:33S 23°56' W 046°19'0 0.0
2014-Sep-01 08:33S 23°56' W 046°19'0 0.0
2014-Sep-01 07:30S 23°56' W 046°19'0 0.0
2014-Sep-01 06:33S 23°56' W 046°19'0 0.0
2014-Sep-01 05:33S 23°56' W 046°19'0 0.0
2014-Sep-01 04:33S 23°56' W 046°19'0 0.0
2014-Sep-01 03:33S 23°56' W 046°19'0 0.0
2014-Sep-01 02:27S 23°56' W 046°19'0 0.0
2014-Sep-01 01:33S 23°56' W 046°19'0 0.0
2014-Sep-01 00:33S 23°56' W 046°19'0 0.0
2014-Aug-31 23:33S 23°56' W 046°19'0 0.0
2014-Aug-31 22:33S 23°56' W 046°19'0 0.0
2014-Aug-31 21:30S 23°56' W 046°19'0 0.0
2014-Aug-31 20:33S 23°56' W 046°19'0 0.0
2014-Aug-31 19:33S 23°56' W 046°19'0 0.0
2014-Aug-31 18:33S 23°56' W 046°19'0 0.0
2014-Aug-31 17:33S 23°56' W 046°19'0 0.0
2014-Aug-31 16:33S 23°56' W 046°19'0 0.0
2014-Aug-31 15:33S 23°56' W 046°19'0 0.0
2014-Aug-31 14:33S 23°56' W 046°19'0 0.0
2014-Aug-31 13:30S 23°56' W 046°19'0 0.0
2014-Aug-31 12:30S 23°56' W 046°19'0 0.0
2014-Aug-31 11:33S 23°56' W 046°19'0 0.0
2014-Aug-31 10:33S 23°56' W 046°19'0 0.0
2014-Aug-31 09:33S 23°56' W 046°19'3 3.5
2014-Aug-31 08:33S 23°59' W 046°17'7 7.1
2014-Aug-31 07:33S 24°04' W 046°22'5 4.7
2014-Aug-31 06:33S 24°09' W 046°23'  

Dump ship's entire track history